createdAt,value
2017-03-10T00:07:25.148Z,-56
2017-03-10T00:17:37.063Z,-56
2017-03-10T00:27:26.091Z,-58
2017-03-10T00:37:34.774Z,-56
2017-03-10T00:47:25.208Z,-57
2017-03-10T00:57:25.236Z,-57
2017-03-10T01:07:25.260Z,-56
2017-03-10T01:17:25.320Z,-58
2017-03-10T01:27:25.213Z,-58
2017-03-10T01:37:25.299Z,-58
2017-03-10T01:47:25.280Z,-57
2017-03-10T01:57:25.276Z,-57
2017-03-10T02:07:25.242Z,-57
2017-03-10T02:17:25.206Z,-57
2017-03-10T02:27:25.286Z,-57
2017-03-10T02:37:25.247Z,-58
2017-03-10T02:47:25.358Z,-57
2017-03-10T02:57:25.267Z,-57
2017-03-10T03:07:25.353Z,-59
2017-03-10T03:17:25.352Z,-57
2017-03-10T03:27:26.248Z,-56
2017-03-10T03:37:25.278Z,-57
2017-03-10T03:47:25.364Z,-57
2017-03-10T03:57:25.366Z,-57
2017-03-10T04:07:25.328Z,-57
2017-03-10T04:17:25.371Z,-57
2017-03-10T04:27:25.299Z,-58
2017-03-10T04:37:25.372Z,-57
2017-03-10T04:47:25.407Z,-57
2017-03-10T04:57:25.383Z,-58
2017-03-10T05:07:25.349Z,-57
2017-03-10T05:17:25.434Z,-57
2017-03-10T05:27:25.396Z,-57
2017-03-10T05:37:25.485Z,-57
2017-03-10T05:47:25.430Z,-57
2017-03-10T05:57:25.464Z,-57
2017-03-10T06:07:25.425Z,-57
2017-03-10T06:17:25.444Z,-57
2017-03-10T06:27:25.512Z,-61
2017-03-10T06:37:25.410Z,-61
2017-03-10T06:47:25.458Z,-60
2017-03-10T06:57:25.715Z,-56
2017-03-10T07:07:25.550Z,-56
2017-03-10T07:17:25.439Z,-56
2017-03-10T07:27:25.528Z,-57
2017-03-10T07:37:25.538Z,-56
2017-03-10T07:47:25.545Z,-55
2017-03-10T07:57:25.486Z,-56
2017-03-10T08:07:25.592Z,-56
2017-03-10T08:17:25.543Z,-56
2017-03-10T08:27:25.542Z,-56
2017-03-10T08:37:25.570Z,-56
2017-03-10T08:47:25.624Z,-56
2017-03-10T08:57:25.597Z,-56
2017-03-10T09:07:25.553Z,-56
2017-03-10T09:17:25.675Z,-56
2017-03-10T09:27:25.582Z,-56
2017-03-10T09:37:26.781Z,-56
2017-03-10T09:47:25.657Z,-56
2017-03-10T09:57:25.626Z,-59
2017-03-10T10:07:25.656Z,-60
2017-03-10T10:17:25.593Z,-56
2017-03-10T10:27:26.106Z,-60
2017-03-10T10:37:25.683Z,-60
2017-03-10T10:47:25.751Z,-58
2017-03-10T10:57:25.712Z,-61
2017-03-10T11:07:25.671Z,-57
2017-03-10T11:17:25.656Z,-59
2017-03-10T11:27:26.066Z,-58
2017-03-10T11:37:25.682Z,-59
2017-03-10T11:47:25.752Z,-60
2017-03-10T11:57:25.740Z,-60
2017-03-10T12:07:25.860Z,-61
2017-03-10T12:17:25.733Z,-59
2017-03-10T12:27:25.827Z,-56
2017-03-10T12:37:25.851Z,-61
2017-03-10T12:47:25.882Z,-61
2017-03-10T12:57:26.819Z,-57
2017-03-10T13:07:25.754Z,-61
2017-03-10T13:17:25.869Z,-61
2017-03-10T13:27:25.947Z,-61
2017-03-10T13:37:25.867Z,-61
2017-03-10T13:47:25.794Z,-60
2017-03-10T13:57:25.813Z,-56
2017-03-10T14:07:25.955Z,-62
2017-03-10T14:17:25.902Z,-57
2017-03-10T14:27:25.886Z,-60
2017-03-10T14:37:25.920Z,-59
2017-03-10T14:47:25.913Z,-60
2017-03-10T14:57:29.996Z,-74
2017-03-10T15:07:35.707Z,-58
2017-03-10T15:17:25.837Z,-63
2017-03-10T15:27:25.863Z,-64
2017-03-10T15:37:25.864Z,-64
2017-03-10T15:47:25.935Z,-62
2017-03-10T15:57:25.917Z,-63
2017-03-10T16:07:25.955Z,-62
2017-03-10T16:17:25.969Z,-63
2017-03-10T16:27:25.932Z,-64
2017-03-10T16:37:25.995Z,-62
2017-03-10T16:47:25.993Z,-62
2017-03-10T16:57:25.986Z,-62
2017-03-10T17:07:26.109Z,-61
2017-03-10T17:17:25.978Z,-61
2017-03-10T17:27:26.046Z,-66
2017-03-10T17:37:25.985Z,-69
2017-03-10T17:47:26.041Z,-65
2017-03-10T17:57:26.108Z,-65
2017-03-10T18:07:26.153Z,-65
2017-03-10T18:17:26.076Z,-66
2017-03-10T18:27:26.147Z,-60
2017-03-10T18:37:26.186Z,-68
2017-03-10T18:47:26.187Z,-60
2017-03-10T18:57:26.170Z,-64
2017-03-10T19:07:26.140Z,-66
2017-03-10T19:17:26.179Z,-66
2017-03-10T19:27:26.152Z,-65
2017-03-10T19:37:26.289Z,-64
2017-03-10T19:47:26.324Z,-65
2017-03-10T19:57:26.502Z,-63
2017-03-10T20:07:26.154Z,-65
2017-03-10T20:17:26.210Z,-64
2017-03-10T20:27:26.342Z,-63
2017-03-10T20:47:26.141Z,-65
2017-03-10T20:57:26.518Z,-63
2017-03-10T21:07:26.226Z,-68
2017-03-10T21:17:26.390Z,-66
2017-03-10T21:27:26.384Z,-65
2017-03-10T21:37:26.357Z,-65
2017-03-10T21:47:26.244Z,-64
2017-03-10T21:57:26.430Z,-64
2017-03-10T22:07:26.397Z,-59
2017-03-10T22:17:26.473Z,-57
2017-03-10T22:27:26.354Z,-57
2017-03-10T22:37:26.374Z,-58
2017-03-10T22:47:26.318Z,-57
2017-03-10T22:57:26.401Z,-57
2017-03-10T23:07:26.319Z,-58
2017-03-10T23:17:26.393Z,-58
2017-03-10T23:27:26.490Z,-59
2017-03-10T23:37:26.526Z,-59
2017-03-10T23:47:26.354Z,-59
2017-03-10T23:57:26.435Z,-59
